sensor_id;sensor_type;location;lat;lon;timestamp;pressure;altitude;pressure_sealevel;temperature;humidity
53900;BME280;40509;32.858;-116.858;2023-05-07T00:01:51;98269.03;;;21.00;48.01
53900;BME280;40509;32.858;-116.858;2023-05-07T00:04:18;98264.31;;;21.03;47.89
53900;BME280;40509;32.858;-116.858;2023-05-07T00:06:45;98274.13;;;21.01;47.81
53900;BME280;40509;32.858;-116.858;2023-05-07T00:09:12;98272.31;;;21.02;47.68
53900;BME280;40509;32.858;-116.858;2023-05-07T00:11:40;98269.53;;;21.03;47.64
53900;BME280;40509;32.858;-116.858;2023-05-07T00:14:07;98275.09;;;21.00;47.86
53900;BME280;40509;32.858;-116.858;2023-05-07T00:16:34;98272.03;;;21.05;47.84
53900;BME280;40509;32.858;-116.858;2023-05-07T00:19:01;98265.00;;;21.05;47.80
53900;BME280;40509;32.858;-116.858;2023-05-07T00:21:28;98270.91;;;21.08;47.75
53900;BME280;40509;32.858;-116.858;2023-05-07T00:23:55;98272.44;;;21.10;47.79
53900;BME280;40509;32.858;-116.858;2023-05-07T00:26:22;98280.19;;;21.12;47.93
53900;BME280;40509;32.858;-116.858;2023-05-07T00:28:51;98280.59;;;21.07;47.69
53900;BME280;40509;32.858;-116.858;2023-05-07T00:31:18;98281.44;;;20.98;46.86
53900;BME280;40509;32.858;-116.858;2023-05-07T00:33:45;98279.91;;;20.85;47.09
53900;BME280;40509;32.858;-116.858;2023-05-07T00:36:13;98281.03;;;20.83;46.86
53900;BME280;40509;32.858;-116.858;2023-05-07T00:38:41;98285.72;;;20.69;46.91
53900;BME280;40509;32.858;-116.858;2023-05-07T00:41:09;98289.97;;;20.61;46.46
53900;BME280;40509;32.858;-116.858;2023-05-07T00:43:36;98289.97;;;20.61;45.94
53900;BME280;40509;32.858;-116.858;2023-05-07T00:46:04;98285.97;;;20.57;46.19
53900;BME280;40509;32.858;-116.858;2023-05-07T00:48:32;98283.66;;;20.73;46.15
53900;BME280;40509;32.858;-116.858;2023-05-07T00:50:59;98285.84;;;20.87;46.05
53900;BME280;40509;32.858;-116.858;2023-05-07T00:53:26;98287.94;;;20.94;45.98
53900;BME280;40509;32.858;-116.858;2023-05-07T00:55:55;98282.53;;;20.95;45.79
53900;BME280;40509;32.858;-116.858;2023-05-07T00:58:22;98288.50;;;20.97;45.80
53900;BME280;40509;32.858;-116.858;2023-05-07T01:00:51;98291.66;;;21.01;45.62
53900;BME280;40509;32.858;-116.858;2023-05-07T01:03:18;98288.78;;;21.04;45.67
53900;BME280;40509;32.858;-116.858;2023-05-07T01:05:46;98294.97;;;21.03;45.56
53900;BME280;40509;32.858;-116.858;2023-05-07T01:08:15;98288.78;;;21.04;45.87
53900;BME280;40509;32.858;-116.858;2023-05-07T01:10:44;98291.41;;;21.04;45.93
53900;BME280;40509;32.858;-116.858;2023-05-07T01:13:12;98293.03;;;21.05;45.91
53900;BME280;40509;32.858;-116.858;2023-05-07T01:15:43;98290.25;;;21.06;46.20
53900;BME280;40509;32.858;-116.858;2023-05-07T01:18:10;98297.31;;;21.06;46.14
53900;BME280;40509;32.858;-116.858;2023-05-07T01:20:37;98292.78;;;21.08;46.39
53900;BME280;40509;32.858;-116.858;2023-05-07T01:23:07;98290.97;;;21.09;46.24
53900;BME280;40509;32.858;-116.858;2023-05-07T01:25:34;98295.41;;;21.08;46.37
53900;BME280;40509;32.858;-116.858;2023-05-07T01:28:02;98294.41;;;21.09;46.54
53900;BME280;40509;32.858;-116.858;2023-05-07T01:30:34;98297.31;;;21.06;46.63
53900;BME280;40509;32.858;-116.858;2023-05-07T01:33:11;98300.66;;;21.08;46.63
53900;BME280;40509;32.858;-116.858;2023-05-07T01:35:44;98306.84;;;21.07;46.78
53900;BME280;40509;32.858;-116.858;2023-05-07T01:38:13;98304.91;;;21.09;46.68
53900;BME280;40509;32.858;-116.858;2023-05-07T01:40:41;98314.59;;;21.09;46.77
53900;BME280;40509;32.858;-116.858;2023-05-07T01:43:09;98320.66;;;21.09;46.86
53900;BME280;40509;32.858;-116.858;2023-05-07T01:45:38;98320.66;;;21.09;46.94
53900;BME280;40509;32.858;-116.858;2023-05-07T01:48:07;98323.41;;;21.08;46.89
53900;BME280;40509;32.858;-116.858;2023-05-07T01:50:34;98319.84;;;21.09;47.02
53900;BME280;40509;32.858;-116.858;2023-05-07T01:53:02;98323.03;;;21.12;47.14
53900;BME280;40509;32.858;-116.858;2023-05-07T01:55:30;98320.78;;;21.08;47.16
53900;BME280;40509;32.858;-116.858;2023-05-07T01:57:58;98322.59;;;21.07;47.44
53900;BME280;40509;32.858;-116.858;2023-05-07T02:00:26;98331.16;;;21.09;47.29
53900;BME280;40509;32.858;-116.858;2023-05-07T02:02:53;98335.03;;;21.05;47.39
53900;BME280;40509;32.858;-116.858;2023-05-07T02:05:33;98343.88;;;21.04;47.40
53900;BME280;40509;32.858;-116.858;2023-05-07T02:08:20;98349.81;;;21.06;47.39
53900;BME280;40509;32.858;-116.858;2023-05-07T02:10:47;98350.09;;;21.13;46.99
53900;BME280;40509;32.858;-116.858;2023-05-07T02:13:14;98340.28;;;21.05;47.30
53900;BME280;40509;32.858;-116.858;2023-05-07T02:15:41;98349.53;;;21.09;47.14
53900;BME280;40509;32.858;-116.858;2023-05-07T02:18:09;98348.16;;;21.05;47.37
53900;BME280;40509;32.858;-116.858;2023-05-07T02:20:37;98349.66;;;21.08;47.24
53900;BME280;40509;32.858;-116.858;2023-05-07T02:23:04;98351.47;;;21.07;47.35
53900;BME280;40509;32.858;-116.858;2023-05-07T02:25:32;98356.59;;;21.09;47.33
53900;BME280;40509;32.858;-116.858;2023-05-07T02:27:59;98355.47;;;21.11;47.42
53900;BME280;40509;32.858;-116.858;2023-05-07T02:30:52;98345.38;;;21.06;47.68
53900;BME280;40509;32.858;-116.858;2023-05-07T02:33:20;98355.63;;;21.10;47.52
53900;BME280;40509;32.858;-116.858;2023-05-07T02:35:48;98356.16;;;21.03;47.61
53900;BME280;40509;32.858;-116.858;2023-05-07T02:38:16;98357.53;;;21.08;47.52
53900;BME280;40509;32.858;-116.858;2023-05-07T02:40:44;98367.66;;;21.12;47.53
53900;BME280;40509;32.858;-116.858;2023-05-07T02:43:11;98363.22;;;21.13;47.40
53900;BME280;40509;32.858;-116.858;2023-05-07T02:45:42;98350.78;;;21.15;47.46
53900;BME280;40509;32.858;-116.858;2023-05-07T02:48:10;98356.88;;;21.15;47.47
53900;BME280;40509;32.858;-116.858;2023-05-07T02:50:37;98363.94;;;21.15;47.36
53900;BME280;40509;32.858;-116.858;2023-05-07T02:53:04;98364.88;;;21.14;47.64
53900;BME280;40509;32.858;-116.858;2023-05-07T02:55:31;98358.78;;;21.13;47.47
53900;BME280;40509;32.858;-116.858;2023-05-07T02:57:59;98362.94;;;21.16;47.57
53900;BME280;40509;32.858;-116.858;2023-05-07T03:00:26;98369.03;;;21.16;47.58
53900;BME280;40509;32.858;-116.858;2023-05-07T03:03:04;98362.94;;;21.16;47.66
53900;BME280;40509;32.858;-116.858;2023-05-07T03:05:31;98370.94;;;21.14;47.73
53900;BME280;40509;32.858;-116.858;2023-05-07T03:07:59;98370.94;;;21.14;47.64
53900;BME280;40509;32.858;-116.858;2023-05-07T03:10:26;98378.69;;;21.16;47.65
53900;BME280;40509;32.858;-116.858;2023-05-07T03:12:53;98381.16;;;21.17;47.80
53900;BME280;40509;32.858;-116.858;2023-05-07T03:15:20;98382.84;;;21.18;47.83
53900;BME280;40509;32.858;-116.858;2023-05-07T03:17:48;98378.53;;;21.17;47.76
53900;BME280;40509;32.858;-116.858;2023-05-07T03:20:15;98384.66;;;21.18;47.83
53900;BME280;40509;32.858;-116.858;2023-05-07T03:22:43;98380.22;;;21.18;47.83
53900;BME280;40509;32.858;-116.858;2023-05-07T03:25:10;98385.88;;;21.14;48.09
53900;BME280;40509;32.858;-116.858;2023-05-07T03:27:37;98390.03;;;21.16;48.12
53900;BME280;40509;32.858;-116.858;2023-05-07T03:30:05;98390.84;;;21.17;48.20
53900;BME280;40509;32.858;-116.858;2023-05-07T03:32:33;98394.72;;;21.22;48.07
53900;BME280;40509;32.858;-116.858;2023-05-07T03:35:01;98397.34;;;21.22;48.22
53900;BME280;40509;32.858;-116.858;2023-05-07T03:37:29;98392.66;;;21.16;48.15
53900;BME280;40509;32.858;-116.858;2023-05-07T03:39:56;98393.47;;;21.17;48.83
53900;BME280;40509;32.858;-116.858;2023-05-07T03:42:24;98393.47;;;21.17;48.95
53900;BME280;40509;32.858;-116.858;2023-05-07T03:44:52;98390.72;;;21.18;49.21
53900;BME280;40509;32.858;-116.858;2023-05-07T03:47:20;98393.19;;;21.20;49.09
53900;BME280;40509;32.858;-116.858;2023-05-07T03:49:47;98388.94;;;21.19;49.06
53900;BME280;40509;32.858;-116.858;2023-05-07T03:52:16;98395.00;;;21.19;49.31
53900;BME280;40509;32.858;-116.858;2023-05-07T03:54:49;98390.72;;;21.18;49.34
53900;BME280;40509;32.858;-116.858;2023-05-07T03:57:17;98382.00;;;21.18;49.50
53900;BME280;40509;32.858;-116.858;2023-05-07T03:59:44;98388.09;;;21.18;49.49
53900;BME280;40509;32.858;-116.858;2023-05-07T04:02:11;98386.97;;;21.11;49.91
53900;BME280;40509;32.858;-116.858;2023-05-07T04:04:39;98389.88;;;21.18;49.99
53900;BME280;40509;32.858;-116.858;2023-05-07T04:07:06;98388.09;;;21.18;50.07
53900;BME280;40509;32.858;-116.858;2023-05-07T04:09:39;98388.50;;;21.14;50.04
53900;BME280;40509;32.858;-116.858;2023-05-07T04:12:06;98392.66;;;21.16;50.65
53900;BME280;40509;32.858;-116.858;2023-05-07T04:14:35;98396.91;;;21.17;51.17
53900;BME280;40509;32.858;-116.858;2023-05-07T04:17:02;98395.13;;;21.18;51.13
53900;BME280;40509;32.858;-116.858;2023-05-07T04:19:30;98394.44;;;21.16;51.65
53900;BME280;40509;32.858;-116.858;2023-05-07T04:21:59;98396.91;;;21.17;51.01
53900;BME280;40509;32.858;-116.858;2023-05-07T04:24:27;98398.59;;;21.18;50.83
53900;BME280;40509;32.858;-116.858;2023-05-07T04:26:54;98401.63;;;21.23;51.13
53900;BME280;40509;32.858;-116.858;2023-05-07T04:29:22;98399.16;;;21.22;50.92
53900;BME280;40509;32.858;-116.858;2023-05-07T04:31:49;98393.91;;;21.22;51.03
53900;BME280;40509;32.858;-116.858;2023-05-07T04:34:16;98398.88;;;21.25;51.17
53900;BME280;40509;32.858;-116.858;2023-05-07T04:36:43;98407.84;;;21.22;51.13
53900;BME280;40509;32.858;-116.858;2023-05-07T04:39:13;98401.91;;;21.20;51.07
53900;BME280;40509;32.858;-116.858;2023-05-07T04:41:44;98403.56;;;21.21;51.24
53900;BME280;40509;32.858;-116.858;2023-05-07T04:44:11;98396.38;;;21.23;51.02
53900;BME280;40509;32.858;-116.858;2023-05-07T04:46:39;98400.81;;;21.23;51.01
53900;BME280;40509;32.858;-116.858;2023-05-07T04:49:06;98405.34;;;21.21;51.22
53900;BME280;40509;32.858;-116.858;2023-05-07T04:51:34;98404.25;;;21.23;51.20
53900;BME280;40509;32.858;-116.858;2023-05-07T04:54:01;98408.81;;;21.21;50.96
53900;BME280;40509;32.858;-116.858;2023-05-07T04:56:30;98409.22;;;21.27;50.97
53900;BME280;40509;32.858;-116.858;2023-05-07T04:58:59;98412.13;;;21.23;51.04
53900;BME280;40509;32.858;-116.858;2023-05-07T05:01:26;98409.38;;;21.25;50.99
53900;BME280;40509;32.858;-116.858;2023-05-07T05:03:53;98405.94;;;21.25;51.18
53900;BME280;40509;32.858;-116.858;2023-05-07T05:06:21;98411.31;;;21.23;51.26
53900;BME280;40509;32.858;-116.858;2023-05-07T05:08:48;98398.31;;;21.21;51.10
53900;BME280;40509;32.858;-116.858;2023-05-07T05:11:15;98404.69;;;21.19;51.24
53900;BME280;40509;32.858;-116.858;2023-05-07T05:13:43;98403.44;;;21.23;51.08
53900;BME280;40509;32.858;-116.858;2023-05-07T05:16:16;98393.91;;;21.22;51.23
53900;BME280;40509;32.858;-116.858;2023-05-07T05:18:44;98392.22;;;21.21;51.27
53900;BME280;40509;32.858;-116.858;2023-05-07T05:21:13;98395.28;;;21.26;51.20
53900;BME280;40509;32.858;-116.858;2023-05-07T05:23:42;98389.59;;;21.21;51.21
53900;BME280;40509;32.858;-116.858;2023-05-07T05:26:09;98394.72;;;21.22;51.04
53900;BME280;40509;32.858;-116.858;2023-05-07T05:28:37;98395.41;;;21.25;51.12
53900;BME280;40509;32.858;-116.858;2023-05-07T05:31:05;98389.47;;;21.22;50.91
53900;BME280;40509;32.858;-116.858;2023-05-07T05:33:35;98394.47;;;21.26;50.91
53900;BME280;40509;32.858;-116.858;2023-05-07T05:36:05;98389.22;;;21.26;50.93
53900;BME280;40509;32.858;-116.858;2023-05-07T05:38:33;98386.69;;;21.24;50.83
53900;BME280;40509;32.858;-116.858;2023-05-07T05:41:01;98390.44;;;21.21;51.01
53900;BME280;40509;32.858;-116.858;2023-05-07T05:43:30;98386.41;;;21.17;51.20
53900;BME280;40509;32.858;-116.858;2023-05-07T05:45:57;98380.50;;;21.15;51.17
53900;BME280;40509;32.858;-116.858;2023-05-07T05:48:25;98382.97;;;21.07;51.38
53900;BME280;40509;32.858;-116.858;2023-05-07T05:50:52;98378.81;;;21.04;50.89
53900;BME280;40509;32.858;-116.858;2023-05-07T05:53:19;98378.53;;;21.08;51.27
53900;BME280;40509;32.858;-116.858;2023-05-07T05:55:47;98380.06;;;21.10;51.09
53900;BME280;40509;32.858;-116.858;2023-05-07T05:58:15;98381.72;;;21.11;50.94
53900;BME280;40509;32.858;-116.858;2023-05-07T06:00:46;98388.22;;;21.07;50.89
53900;BME280;40509;32.858;-116.858;2023-05-07T06:03:15;98383.25;;;21.04;51.14
53900;BME280;40509;32.858;-116.858;2023-05-07T06:05:43;98396.38;;;21.04;50.85
53900;BME280;40509;32.858;-116.858;2023-05-07T06:08:10;98385.19;;;21.02;50.75
53900;BME280;40509;32.858;-116.858;2023-05-07T06:10:38;98395.81;;;21.00;50.75
53900;BME280;40509;32.858;-116.858;2023-05-07T06:13:07;98386.97;;;21.01;50.61
53900;BME280;40509;32.858;-116.858;2023-05-07T06:15:37;98391.94;;;20.95;50.79
53900;BME280;40509;32.858;-116.858;2023-05-07T06:18:09;98386.69;;;20.95;50.58
53900;BME280;40509;32.858;-116.858;2023-05-07T06:20:36;98390.97;;;20.96;50.42
53900;BME280;40509;32.858;-116.858;2023-05-07T06:23:07;98388.47;;;20.94;50.16
53900;BME280;40509;32.858;-116.858;2023-05-07T06:25:35;98384.75;;;20.97;49.93
53900;BME280;40509;32.858;-116.858;2023-05-07T06:28:02;98389.56;;;20.92;49.79
53900;BME280;40509;32.858;-116.858;2023-05-07T06:30:30;98387.22;;;20.88;50.13
53900;BME280;40509;32.858;-116.858;2023-05-07T06:32:57;98383.06;;;20.86;50.35
53900;BME280;40509;32.858;-116.858;2023-05-07T06:35:26;98383.22;;;20.84;50.49
53900;BME280;40509;32.858;-116.858;2023-05-07T06:37:53;98386.13;;;20.81;50.60
53900;BME280;40509;32.858;-116.858;2023-05-07T06:40:24;98382.50;;;20.72;50.66
53900;BME280;40509;32.858;-116.858;2023-05-07T06:42:52;98384.72;;;20.77;50.40
53900;BME280;40509;32.858;-116.858;2023-05-07T06:45:29;98385.53;;;20.78;50.42
53900;BME280;40509;32.858;-116.858;2023-05-07T06:47:57;98381.81;;;20.80;49.82
53900;BME280;40509;32.858;-116.858;2023-05-07T06:50:25;98380.88;;;20.81;50.38
53900;BME280;40509;32.858;-116.858;2023-05-07T06:52:56;98380.44;;;20.76;50.45
53900;BME280;40509;32.858;-116.858;2023-05-07T06:55:24;98378.72;;;20.65;50.84
53900;BME280;40509;32.858;-116.858;2023-05-07T06:57:51;98384.94;;;20.64;50.55
53900;BME280;40509;32.858;-116.858;2023-05-07T07:00:19;98386.31;;;20.59;50.55
53900;BME280;40509;32.858;-116.858;2023-05-07T07:02:54;98385.63;;;20.57;50.31
53900;BME280;40509;32.858;-116.858;2023-05-07T07:05:24;98391.28;;;20.62;50.23
53900;BME280;40509;32.858;-116.858;2023-05-07T07:07:52;98386.56;;;20.55;50.36
53900;BME280;40509;32.858;-116.858;2023-05-07T07:10:22;98381.22;;;20.67;49.93
53900;BME280;40509;32.858;-116.858;2023-05-07T07:12:51;98377.91;;;20.65;49.91
53900;BME280;40509;32.858;-116.858;2023-05-07T07:15:20;98376.53;;;20.61;50.04
53900;BME280;40509;32.858;-116.858;2023-05-07T07:17:48;98374.56;;;20.63;49.93
53900;BME280;40509;32.858;-116.858;2023-05-07T07:20:16;98366.84;;;20.61;49.98
53900;BME280;40509;32.858;-116.858;2023-05-07T07:22:44;98363.53;;;20.59;49.95
53900;BME280;40509;32.858;-116.858;2023-05-07T07:25:12;98361.88;;;20.58;50.17
53900;BME280;40509;32.858;-116.858;2023-05-07T07:27:40;98367.94;;;20.59;50.16
53900;BME280;40509;32.858;-116.858;2023-05-07T07:30:07;98360.63;;;20.62;49.75
53900;BME280;40509;32.858;-116.858;2023-05-07T07:32:37;98365.47;;;20.57;49.85
53900;BME280;40509;32.858;-116.858;2023-05-07T07:35:05;98360.91;;;20.59;49.81
53900;BME280;40509;32.858;-116.858;2023-05-07T07:37:33;98356.06;;;20.54;49.83
53900;BME280;40509;32.858;-116.858;2023-05-07T07:40:00;98361.72;;;20.50;49.62
53900;BME280;40509;32.858;-116.858;2023-05-07T07:42:28;98364.63;;;20.57;49.65
53900;BME280;40509;32.858;-116.858;2023-05-07T07:44:56;98359.75;;;20.42;49.85
53900;BME280;40509;32.858;-116.858;2023-05-07T07:47:25;98355.75;;;20.48;49.72
53900;BME280;40509;32.858;-116.858;2023-05-07T07:49:53;98351.88;;;20.42;49.84
53900;BME280;40509;32.858;-116.858;2023-05-07T07:52:20;98349.41;;;20.50;49.68
53900;BME280;40509;32.858;-116.858;2023-05-07T07:54:48;98336.72;;;20.46;49.77
53900;BME280;40509;32.858;-116.858;2023-05-07T07:57:15;98336.84;;;20.44;49.57
53900;BME280;40509;32.858;-116.858;2023-05-07T07:59:43;98329.94;;;20.43;49.79
53900;BME280;40509;32.858;-116.858;2023-05-07T08:02:12;98328.00;;;20.45;49.55
53900;BME280;40509;32.858;-116.858;2023-05-07T08:04:39;98332.00;;;20.39;49.86
53900;BME280;40509;32.858;-116.858;2023-05-07T08:07:08;98322.47;;;20.38;49.87
53900;BME280;40509;32.858;-116.858;2023-05-07T08:09:39;98325.53;;;20.44;49.41
53900;BME280;40509;32.858;-116.858;2023-05-07T08:12:07;98319.84;;;20.38;49.79
53900;BME280;40509;32.858;-116.858;2023-05-07T08:14:35;98323.56;;;20.36;49.70
53900;BME280;40509;32.858;-116.858;2023-05-07T08:17:04;98317.09;;;20.40;49.54
53900;BME280;40509;32.858;-116.858;2023-05-07T08:19:32;98320.94;;;20.36;49.46
53900;BME280;40509;32.858;-116.858;2023-05-07T08:21:59;98320.25;;;20.34;49.62
53900;BME280;40509;32.858;-116.858;2023-05-07T08:24:27;98324.78;;;20.32;49.79
53900;BME280;40509;32.858;-116.858;2023-05-07T08:26:54;98326.19;;;20.36;49.49
53900;BME280;40509;32.858;-116.858;2023-05-07T08:29:21;98325.38;;;20.35;49.39
53900;BME280;40509;32.858;-116.858;2023-05-07T08:31:49;98324.78;;;20.32;49.40
53900;BME280;40509;32.858;-116.858;2023-05-07T08:34:16;98323.69;;;20.34;49.38
53900;BME280;40509;32.858;-116.858;2023-05-07T08:36:46;98320.25;;;20.24;49.42
53900;BME280;40509;32.858;-116.858;2023-05-07T08:39:17;98329.06;;;20.23;49.52
53900;BME280;40509;32.858;-116.858;2023-05-07T08:41:48;98324.50;;;20.25;49.65
53900;BME280;40509;32.858;-116.858;2023-05-07T08:44:22;98326.31;;;20.25;49.45
53900;BME280;40509;32.858;-116.858;2023-05-07T08:46:52;98323.38;;;20.18;49.41
53900;BME280;40509;32.858;-116.858;2023-05-07T08:49:21;98322.28;;;20.20;49.48
53900;BME280;40509;32.858;-116.858;2023-05-07T08:51:48;98316.06;;;20.12;49.83
53900;BME280;40509;32.858;-116.858;2023-05-07T08:54:16;98319.94;;;20.17;49.39
53900;BME280;40509;32.858;-116.858;2023-05-07T08:56:44;98322.69;;;20.16;49.25
53900;BME280;40509;32.858;-116.858;2023-05-07T08:59:12;98317.69;;;20.13;49.59
53900;BME280;40509;32.858;-116.858;2023-05-07T09:01:39;98320.47;;;20.11;49.70
53900;BME280;40509;32.858;-116.858;2023-05-07T09:04:07;98312.47;;;20.13;49.52
53900;BME280;40509;32.858;-116.858;2023-05-07T09:06:36;98319.06;;;20.07;49.73
53900;BME280;40509;32.858;-116.858;2023-05-07T09:09:09;98315.94;;;20.13;49.52
53900;BME280;40509;32.858;-116.858;2023-05-07T09:11:36;98309.69;;;20.14;49.29
53900;BME280;40509;32.858;-116.858;2023-05-07T09:14:04;98304.59;;;20.13;49.48
53900;BME280;40509;32.858;-116.858;2023-05-07T09:16:36;98306.97;;;20.16;49.16
53900;BME280;40509;32.858;-116.858;2023-05-07T09:19:04;98305.81;;;20.09;49.52
53900;BME280;40509;32.858;-116.858;2023-05-07T09:21:31;98299.50;;;20.11;49.58
53900;BME280;40509;32.858;-116.858;2023-05-07T09:24:01;98303.06;;;20.10;49.50
53900;BME280;40509;32.858;-116.858;2023-05-07T09:26:35;98302.53;;;20.07;49.39
53900;BME280;40509;32.858;-116.858;2023-05-07T09:29:03;98300.44;;;20.10;49.25
53900;BME280;40509;32.858;-116.858;2023-05-07T09:31:31;98299.19;;;20.04;49.74
53900;BME280;40509;32.858;-116.858;2023-05-07T09:33:59;98299.06;;;20.06;49.56
53900;BME280;40509;32.858;-116.858;2023-05-07T09:36:31;98300.84;;;20.05;49.57
53900;BME280;40509;32.858;-116.858;2023-05-07T09:39:00;98296.44;;;20.06;49.63
53900;BME280;40509;32.858;-116.858;2023-05-07T09:41:30;98301.81;;;20.04;49.57
53900;BME280;40509;32.858;-116.858;2023-05-07T09:44:14;98294.22;;;20.01;49.36
53900;BME280;40509;32.858;-116.858;2023-05-07T09:46:47;98301.13;;;20.02;49.76
53900;BME280;40509;32.858;-116.858;2023-05-07T09:49:23;98296.44;;;20.06;49.56
53900;BME280;40509;32.858;-116.858;2023-05-07T09:52:00;98304.25;;;19.96;49.79
53900;BME280;40509;32.858;-116.858;2023-05-07T09:54:29;98306.75;;;19.98;49.40
53900;BME280;40509;32.858;-116.858;2023-05-07T09:56:58;98302.59;;;19.95;49.72
53900;BME280;40509;32.858;-116.858;2023-05-07T09:59:34;98299.47;;;20.01;49.57
53900;BME280;40509;32.858;-116.858;2023-05-07T10:02:05;98300.69;;;19.97;49.53
53900;BME280;40509;32.858;-116.858;2023-05-07T10:04:39;98302.72;;;19.94;49.83
53900;BME280;40509;32.858;-116.858;2023-05-07T10:07:08;98302.06;;;19.92;49.52
53900;BME280;40509;32.858;-116.858;2023-05-07T10:09:36;98295.00;;;19.92;49.51
53900;BME280;40509;32.858;-116.858;2023-05-07T10:12:07;98296.69;;;19.93;49.50
53900;BME280;40509;32.858;-116.858;2023-05-07T10:14:36;98302.72;;;19.94;49.77
53900;BME280;40509;32.858;-116.858;2023-05-07T10:17:04;98303.97;;;19.90;49.73
53900;BME280;40509;32.858;-116.858;2023-05-07T10:19:32;98305.91;;;19.87;49.60
53900;BME280;40509;32.858;-116.858;2023-05-07T10:22:06;98299.66;;;19.88;49.45
53900;BME280;40509;32.858;-116.858;2023-05-07T10:24:37;98308.50;;;19.87;49.58
53900;BME280;40509;32.858;-116.858;2023-05-07T10:27:12;98303.50;;;19.84;49.41
53900;BME280;40509;32.858;-116.858;2023-05-07T10:32:37;98295.41;;;19.87;49.61
53900;BME280;40509;32.858;-116.858;2023-05-07T10:35:21;98300.06;;;19.84;49.39
53900;BME280;40509;32.858;-116.858;2023-05-07T10:37:50;98296.63;;;19.83;49.47
53900;BME280;40509;32.858;-116.858;2023-05-07T10:40:20;98302.00;;;19.82;49.67
53900;BME280;40509;32.858;-116.858;2023-05-07T10:42:58;98293.03;;;19.84;49.69
53900;BME280;40509;32.858;-116.858;2023-05-07T10:45:29;98294.84;;;19.84;49.59
53900;BME280;40509;32.858;-116.858;2023-05-07T10:48:16;98290.78;;;19.80;49.57
53900;BME280;40509;32.858;-116.858;2023-05-07T10:50:49;98295.22;;;19.79;49.72
53900;BME280;40509;32.858;-116.858;2023-05-07T10:53:36;98296.03;;;19.80;49.67
53900;BME280;40509;32.858;-116.858;2023-05-07T10:58:56;98290.75;;;19.70;49.56
53900;BME280;40509;32.858;-116.858;2023-05-07T11:01:52;98304.81;;;19.69;49.93
53900;BME280;40509;32.858;-116.858;2023-05-07T11:04:25;98302.91;;;19.71;49.72
53900;BME280;40509;32.858;-116.858;2023-05-07T11:07:28;98301.38;;;19.68;49.71
53900;BME280;40509;32.858;-116.858;2023-05-07T11:10:04;98298.59;;;19.70;49.45
53900;BME280;40509;32.858;-116.858;2023-05-07T11:12:57;98294.31;;;19.69;49.37
53900;BME280;40509;32.858;-116.858;2023-05-07T11:15:39;98291.84;;;19.67;49.75
53900;BME280;40509;32.858;-116.858;2023-05-07T11:18:18;98289.09;;;19.69;49.22
53900;BME280;40509;32.858;-116.858;2023-05-07T11:26:28;98276.50;;;19.63;49.26
53900;BME280;40509;32.858;-116.858;2023-05-07T11:28:56;98278.31;;;19.62;49.70
53900;BME280;40509;32.858;-116.858;2023-05-07T11:31:26;98281.56;;;19.54;49.47
53900;BME280;40509;32.858;-116.858;2023-05-07T11:33:57;98278.44;;;19.61;49.34
53900;BME280;40509;32.858;-116.858;2023-05-07T11:36:30;98274.28;;;19.58;49.37
53900;BME280;40509;32.858;-116.858;2023-05-07T11:38:59;98272.75;;;19.55;49.67
53900;BME280;40509;32.858;-116.858;2023-05-07T11:41:36;98273.03;;;19.52;49.68
53900;BME280;40509;32.858;-116.858;2023-05-07T11:44:04;98273.84;;;19.53;49.92
53900;BME280;40509;32.858;-116.858;2023-05-07T11:46:32;98271.94;;;19.55;49.31
53900;BME280;40509;32.858;-116.858;2023-05-07T11:49:00;98278.25;;;19.52;49.77
53900;BME280;40509;32.858;-116.858;2023-05-07T11:51:28;98275.38;;;19.55;49.73
53900;BME280;40509;32.858;-116.858;2023-05-07T11:53:55;98270.41;;;19.52;49.29
53900;BME280;40509;32.858;-116.858;2023-05-07T11:56:23;98264.44;;;19.50;49.38
53900;BME280;40509;32.858;-116.858;2023-05-07T11:58:50;98266.94;;;19.52;49.33
53900;BME280;40509;32.858;-116.858;2023-05-07T12:01:18;98261.00;;;19.50;49.41
53900;BME280;40509;32.858;-116.858;2023-05-07T12:03:46;98262.53;;;19.52;49.44
53900;BME280;40509;32.858;-116.858;2023-05-07T12:06:16;98267.19;;;19.49;49.28
53900;BME280;40509;32.858;-116.858;2023-05-07T12:08:44;98271.88;;;19.45;49.74
53900;BME280;40509;32.858;-116.858;2023-05-07T12:11:25;98260.28;;;19.48;49.49
53900;BME280;40509;32.858;-116.858;2023-05-07T12:13:54;98262.38;;;19.44;49.69
53900;BME280;40509;32.858;-116.858;2023-05-07T12:16:23;98263.91;;;19.47;49.46
53900;BME280;40509;32.858;-116.858;2023-05-07T12:18:50;98269.50;;;19.42;49.57
53900;BME280;40509;32.858;-116.858;2023-05-07T12:21:19;98262.50;;;19.43;49.75
53900;BME280;40509;32.858;-116.858;2023-05-07T12:23:47;98260.97;;;19.40;49.66
53900;BME280;40509;32.858;-116.858;2023-05-07T12:26:14;98260.84;;;19.42;49.64
53900;BME280;40509;32.858;-116.858;2023-05-07T12:28:41;98266.06;;;19.42;49.57
53900;BME280;40509;32.858;-116.858;2023-05-07T12:31:08;98265.34;;;19.40;49.52
53900;BME280;40509;32.858;-116.858;2023-05-07T12:33:37;98269.31;;;19.34;49.48
53900;BME280;40509;32.858;-116.858;2023-05-07T12:36:06;98267.28;;;19.37;49.78
53900;BME280;40509;32.858;-116.858;2023-05-07T12:38:38;98271.66;;;19.37;49.29
53900;BME280;40509;32.858;-116.858;2023-05-07T12:41:09;98272.88;;;19.33;49.55
53900;BME280;40509;32.858;-116.858;2023-05-07T12:43:37;98274.56;;;19.34;49.62
53900;BME280;40509;32.858;-116.858;2023-05-07T12:46:07;98288.22;;;19.37;49.73
53900;BME280;40509;32.858;-116.858;2023-05-07T12:48:37;98275.00;;;19.39;49.50
53900;BME280;40509;32.858;-116.858;2023-05-07T12:51:05;98279.94;;;19.32;49.58
53900;BME280;40509;32.858;-116.858;2023-05-07T12:53:40;98283.63;;;19.30;49.66